Fairview, Wyoming
Current Conditions -  °F | °C
As of 1:55 AM on Sunday 26 Oct 2014 (Local Time) from KAFO Reporting Station
Light Rain Light Rain  
Wind Chill:   Ceiling: 4800
Heat Index:   Visibility: 10mi
Dew Point:   Wind: 8mph
Humidity: 76%   Direction: 320°NW
Pressure: 30"   Gusts: 17mph
Location:  42.69°N, 110.98°W
Report Text: KAFO 260755Z AUTO 32007G15KT 280V360 10SM -RA SCT008 SCT040 BKN048 07/03 A3000 RMK AO2
Loading
Personal Weather Stations






























Interactive Weather Map
Tropical Storm Tracking
New forecast layout! Learn more

10-Day Weather Forecast

Advertisements
Track Severe Weather on mobile